sensor_id;sensor_type;location;lat;lon;timestamp;P1;durP1;ratioP1;P2;durP2;ratioP2
75506;SDS011;64086;43.220;27.878;2022-12-18T00:01:15;4.80;;;3.33;;
75506;SDS011;64086;43.220;27.878;2022-12-18T00:03:51;4.22;;;3.10;;
75506;SDS011;64086;43.220;27.878;2022-12-18T00:06:17;3.90;;;2.72;;
75506;SDS011;64086;43.220;27.878;2022-12-18T00:08:43;4.10;;;2.97;;
75506;SDS011;64086;43.220;27.878;2022-12-18T00:11:16;4.00;;;2.97;;
75506;SDS011;64086;43.220;27.878;2022-12-18T00:13:43;3.92;;;2.90;;
75506;SDS011;64086;43.220;27.878;2022-12-18T00:16:11;4.72;;;3.25;;
75506;SDS011;64086;43.220;27.878;2022-12-18T00:18:38;4.07;;;2.95;;
75506;SDS011;64086;43.220;27.878;2022-12-18T00:21:05;4.97;;;3.00;;
75506;SDS011;64086;43.220;27.878;2022-12-18T00:23:33;4.60;;;3.25;;
75506;SDS011;64086;43.220;27.878;2022-12-18T00:26:00;4.20;;;3.10;;
75506;SDS011;64086;43.220;27.878;2022-12-18T00:28:29;4.93;;;2.92;;
75506;SDS011;64086;43.220;27.878;2022-12-18T00:31:08;4.15;;;2.83;;
75506;SDS011;64086;43.220;27.878;2022-12-18T00:33:36;4.10;;;3.10;;
75506;SDS011;64086;43.220;27.878;2022-12-18T00:36:06;4.40;;;3.15;;
75506;SDS011;64086;43.220;27.878;2022-12-18T00:38:33;4.05;;;3.13;;
75506;SDS011;64086;43.220;27.878;2022-12-18T00:40:59;3.85;;;3.00;;
75506;SDS011;64086;43.220;27.878;2022-12-18T00:43:24;4.32;;;3.03;;
75506;SDS011;64086;43.220;27.878;2022-12-18T00:45:50;4.22;;;3.35;;
75506;SDS011;64086;43.220;27.878;2022-12-18T00:48:15;4.22;;;3.20;;
75506;SDS011;64086;43.220;27.878;2022-12-18T00:50:41;3.90;;;3.08;;
75506;SDS011;64086;43.220;27.878;2022-12-18T00:53:06;4.70;;;3.20;;
75506;SDS011;64086;43.220;27.878;2022-12-18T00:55:34;4.10;;;2.90;;
75506;SDS011;64086;43.220;27.878;2022-12-18T00:58:00;4.18;;;3.10;;
75506;SDS011;64086;43.220;27.878;2022-12-18T01:00:25;3.95;;;3.28;;
75506;SDS011;64086;43.220;27.878;2022-12-18T01:02:51;5.47;;;3.55;;
75506;SDS011;64086;43.220;27.878;2022-12-18T01:05:16;4.32;;;3.15;;
75506;SDS011;64086;43.220;27.878;2022-12-18T01:07:42;4.72;;;3.13;;
75506;SDS011;64086;43.220;27.878;2022-12-18T01:10:08;6.32;;;3.20;;
75506;SDS011;64086;43.220;27.878;2022-12-18T01:12:34;6.60;;;3.30;;
75506;SDS011;64086;43.220;27.878;2022-12-18T01:15:00;4.38;;;3.17;;
75506;SDS011;64086;43.220;27.878;2022-12-18T01:17:25;4.63;;;3.08;;
75506;SDS011;64086;43.220;27.878;2022-12-18T01:19:51;4.57;;;3.22;;
75506;SDS011;64086;43.220;27.878;2022-12-18T01:22:16;4.00;;;3.17;;
75506;SDS011;64086;43.220;27.878;2022-12-18T01:24:42;3.92;;;3.20;;
75506;SDS011;64086;43.220;27.878;2022-12-18T01:27:07;5.40;;;3.25;;
75506;SDS011;64086;43.220;27.878;2022-12-18T01:29:33;5.00;;;3.17;;
75506;SDS011;64086;43.220;27.878;2022-12-18T01:31:58;4.30;;;3.05;;
75506;SDS011;64086;43.220;27.878;2022-12-18T01:34:24;3.95;;;2.95;;
75506;SDS011;64086;43.220;27.878;2022-12-18T01:36:49;4.35;;;3.28;;
75506;SDS011;64086;43.220;27.878;2022-12-18T01:39:17;4.20;;;3.25;;
75506;SDS011;64086;43.220;27.878;2022-12-18T01:41:46;4.30;;;3.20;;
75506;SDS011;64086;43.220;27.878;2022-12-18T01:47:28;5.15;;;2.95;;
75506;SDS011;64086;43.220;27.878;2022-12-18T01:50:11;4.60;;;3.20;;
75506;SDS011;64086;43.220;27.878;2022-12-18T01:52:38;4.75;;;3.38;;
75506;SDS011;64086;43.220;27.878;2022-12-18T01:55:06;4.32;;;3.13;;
75506;SDS011;64086;43.220;27.878;2022-12-18T01:57:33;5.05;;;2.85;;
75506;SDS011;64086;43.220;27.878;2022-12-18T02:00:00;4.15;;;3.17;;
75506;SDS011;64086;43.220;27.878;2022-12-18T02:02:28;5.07;;;3.40;;
75506;SDS011;64086;43.220;27.878;2022-12-18T02:04:55;4.85;;;3.30;;
75506;SDS011;64086;43.220;27.878;2022-12-18T02:10:06;4.43;;;3.22;;
75506;SDS011;64086;43.220;27.878;2022-12-18T02:12:43;4.55;;;3.40;;
75506;SDS011;64086;43.220;27.878;2022-12-18T02:15:36;3.97;;;3.15;;
75506;SDS011;64086;43.220;27.878;2022-12-18T02:18:02;4.45;;;3.40;;
75506;SDS011;64086;43.220;27.878;2022-12-18T02:20:40;4.28;;;3.33;;
75506;SDS011;64086;43.220;27.878;2022-12-18T02:28:41;5.90;;;3.30;;
75506;SDS011;64086;43.220;27.878;2022-12-18T02:31:10;4.32;;;3.38;;
75506;SDS011;64086;43.220;27.878;2022-12-18T02:33:37;5.28;;;3.28;;
75506;SDS011;64086;43.220;27.878;2022-12-18T02:36:03;5.30;;;3.33;;
75506;SDS011;64086;43.220;27.878;2022-12-18T02:38:29;4.60;;;3.50;;
75506;SDS011;64086;43.220;27.878;2022-12-18T02:40:56;4.03;;;2.78;;
75506;SDS011;64086;43.220;27.878;2022-12-18T02:43:22;4.35;;;3.20;;
75506;SDS011;64086;43.220;27.878;2022-12-18T02:45:57;4.07;;;3.40;;
75506;SDS011;64086;43.220;27.878;2022-12-18T02:48:34;5.15;;;3.28;;
75506;SDS011;64086;43.220;27.878;2022-12-18T02:51:08;4.90;;;3.45;;
75506;SDS011;64086;43.220;27.878;2022-12-18T02:53:48;4.40;;;3.42;;
75506;SDS011;64086;43.220;27.878;2022-12-18T02:56:20;4.88;;;3.53;;
75506;SDS011;64086;43.220;27.878;2022-12-18T02:58:56;4.30;;;3.47;;
75506;SDS011;64086;43.220;27.878;2022-12-18T03:01:25;4.57;;;3.60;;
75506;SDS011;64086;43.220;27.878;2022-12-18T03:03:56;4.68;;;3.15;;
75506;SDS011;64086;43.220;27.878;2022-12-18T03:09:01;5.05;;;3.65;;
75506;SDS011;64086;43.220;27.878;2022-12-18T03:11:30;4.95;;;3.80;;
75506;SDS011;64086;43.220;27.878;2022-12-18T03:14:16;4.80;;;3.60;;
75506;SDS011;64086;43.220;27.878;2022-12-18T03:16:42;4.78;;;3.80;;
75506;SDS011;64086;43.220;27.878;2022-12-18T03:19:11;5.32;;;4.07;;
75506;SDS011;64086;43.220;27.878;2022-12-18T03:21:43;6.43;;;4.75;;
75506;SDS011;64086;43.220;27.878;2022-12-18T03:24:11;5.10;;;3.92;;
75506;SDS011;64086;43.220;27.878;2022-12-18T03:26:37;5.13;;;3.78;;
75506;SDS011;64086;43.220;27.878;2022-12-18T03:29:11;4.72;;;3.70;;
75506;SDS011;64086;43.220;27.878;2022-12-18T03:31:39;4.32;;;3.53;;
75506;SDS011;64086;43.220;27.878;2022-12-18T03:34:09;5.40;;;3.80;;
75506;SDS011;64086;43.220;27.878;2022-12-18T03:36:36;5.05;;;3.40;;
75506;SDS011;64086;43.220;27.878;2022-12-18T03:39:02;4.10;;;3.20;;
75506;SDS011;64086;43.220;27.878;2022-12-18T03:43:57;4.15;;;3.00;;
75506;SDS011;64086;43.220;27.878;2022-12-18T03:46:33;4.40;;;3.30;;
75506;SDS011;64086;43.220;27.878;2022-12-18T03:55:03;6.22;;;3.47;;
75506;SDS011;64086;43.220;27.878;2022-12-18T03:57:31;4.13;;;3.08;;
75506;SDS011;64086;43.220;27.878;2022-12-18T03:59:59;4.32;;;3.10;;
75506;SDS011;64086;43.220;27.878;2022-12-18T04:02:26;3.75;;;3.03;;
75506;SDS011;64086;43.220;27.878;2022-12-18T04:04:53;4.15;;;3.08;;
75506;SDS011;64086;43.220;27.878;2022-12-18T04:07:21;3.65;;;2.88;;
75506;SDS011;64086;43.220;27.878;2022-12-18T04:09:48;4.05;;;2.80;;
75506;SDS011;64086;43.220;27.878;2022-12-18T04:12:13;4.18;;;3.00;;
75506;SDS011;64086;43.220;27.878;2022-12-18T04:14:39;4.35;;;2.95;;
75506;SDS011;64086;43.220;27.878;2022-12-18T04:17:04;4.70;;;3.03;;
75506;SDS011;64086;43.220;27.878;2022-12-18T04:19:30;4.57;;;2.90;;
75506;SDS011;64086;43.220;27.878;2022-12-18T04:21:55;3.95;;;2.92;;
75506;SDS011;64086;43.220;27.878;2022-12-18T04:24:21;5.20;;;3.20;;
75506;SDS011;64086;43.220;27.878;2022-12-18T04:26:46;4.22;;;2.97;;
75506;SDS011;64086;43.220;27.878;2022-12-18T04:29:11;5.05;;;3.35;;
75506;SDS011;64086;43.220;27.878;2022-12-18T04:31:37;4.75;;;3.72;;
75506;SDS011;64086;43.220;27.878;2022-12-18T04:34:02;5.50;;;4.68;;
75506;SDS011;64086;43.220;27.878;2022-12-18T04:36:28;5.88;;;4.47;;
75506;SDS011;64086;43.220;27.878;2022-12-18T04:38:54;5.90;;;4.88;;
75506;SDS011;64086;43.220;27.878;2022-12-18T04:41:19;6.82;;;4.90;;
75506;SDS011;64086;43.220;27.878;2022-12-18T04:43:45;6.22;;;4.85;;
75506;SDS011;64086;43.220;27.878;2022-12-18T04:46:10;6.60;;;5.00;;
75506;SDS011;64086;43.220;27.878;2022-12-18T04:48:36;7.22;;;5.40;;
75506;SDS011;64086;43.220;27.878;2022-12-18T04:51:01;7.32;;;5.40;;
75506;SDS011;64086;43.220;27.878;2022-12-18T04:53:27;8.70;;;6.20;;
75506;SDS011;64086;43.220;27.878;2022-12-18T04:56:09;8.98;;;6.38;;
75506;SDS011;64086;43.220;27.878;2022-12-18T04:58:36;7.95;;;6.15;;
75506;SDS011;64086;43.220;27.878;2022-12-18T05:01:02;9.73;;;6.30;;
75506;SDS011;64086;43.220;27.878;2022-12-18T05:03:28;9.05;;;6.38;;
75506;SDS011;64086;43.220;27.878;2022-12-18T05:05:53;8.80;;;5.82;;
75506;SDS011;64086;43.220;27.878;2022-12-18T05:08:19;8.60;;;6.15;;
75506;SDS011;64086;43.220;27.878;2022-12-18T05:10:44;9.82;;;6.47;;
75506;SDS011;64086;43.220;27.878;2022-12-18T05:13:10;9.70;;;6.25;;
75506;SDS011;64086;43.220;27.878;2022-12-18T05:15:35;11.25;;;7.18;;
75506;SDS011;64086;43.220;27.878;2022-12-18T05:18:01;10.00;;;7.03;;
75506;SDS011;64086;43.220;27.878;2022-12-18T05:20:27;8.35;;;6.00;;
75506;SDS011;64086;43.220;27.878;2022-12-18T05:22:53;10.50;;;6.65;;
75506;SDS011;64086;43.220;27.878;2022-12-18T05:25:19;10.63;;;7.68;;
75506;SDS011;64086;43.220;27.878;2022-12-18T05:27:45;11.65;;;8.07;;
75506;SDS011;64086;43.220;27.878;2022-12-18T05:30:11;11.65;;;7.20;;
75506;SDS011;64086;43.220;27.878;2022-12-18T05:32:37;12.77;;;9.00;;
75506;SDS011;64086;43.220;27.878;2022-12-18T05:35:03;12.00;;;8.18;;
75506;SDS011;64086;43.220;27.878;2022-12-18T05:37:29;11.43;;;8.18;;
75506;SDS011;64086;43.220;27.878;2022-12-18T05:39:54;11.10;;;8.40;;
75506;SDS011;64086;43.220;27.878;2022-12-18T05:42:20;13.32;;;9.18;;
75506;SDS011;64086;43.220;27.878;2022-12-18T05:44:45;12.75;;;9.27;;
75506;SDS011;64086;43.220;27.878;2022-12-18T05:47:11;11.23;;;8.38;;
75506;SDS011;64086;43.220;27.878;2022-12-18T05:49:36;12.82;;;8.57;;
75506;SDS011;64086;43.220;27.878;2022-12-18T05:52:01;16.10;;;9.70;;
75506;SDS011;64086;43.220;27.878;2022-12-18T05:54:27;12.80;;;8.57;;
75506;SDS011;64086;43.220;27.878;2022-12-18T05:56:53;12.07;;;8.75;;
75506;SDS011;64086;43.220;27.878;2022-12-18T05:59:19;14.68;;;10.02;;
75506;SDS011;64086;43.220;27.878;2022-12-18T06:01:44;14.43;;;9.88;;
75506;SDS011;64086;43.220;27.878;2022-12-18T06:04:10;16.70;;;10.48;;
75506;SDS011;64086;43.220;27.878;2022-12-18T06:06:35;14.32;;;10.18;;
75506;SDS011;64086;43.220;27.878;2022-12-18T06:09:01;15.38;;;10.88;;
75506;SDS011;64086;43.220;27.878;2022-12-18T06:11:33;17.20;;;11.32;;
75506;SDS011;64086;43.220;27.878;2022-12-18T06:13:59;16.50;;;11.93;;
75506;SDS011;64086;43.220;27.878;2022-12-18T06:16:25;15.70;;;11.18;;
75506;SDS011;64086;43.220;27.878;2022-12-18T06:18:52;17.25;;;10.95;;
75506;SDS011;64086;43.220;27.878;2022-12-18T06:21:17;15.57;;;10.48;;
75506;SDS011;64086;43.220;27.878;2022-12-18T06:23:42;15.55;;;11.63;;
75506;SDS011;64086;43.220;27.878;2022-12-18T06:26:09;16.63;;;11.18;;
75506;SDS011;64086;43.220;27.878;2022-12-18T06:28:36;17.27;;;10.70;;
75506;SDS011;64086;43.220;27.878;2022-12-18T06:31:02;15.18;;;10.57;;
75506;SDS011;64086;43.220;27.878;2022-12-18T06:33:29;17.05;;;11.38;;
75506;SDS011;64086;43.220;27.878;2022-12-18T06:35:54;15.98;;;11.40;;
75506;SDS011;64086;43.220;27.878;2022-12-18T06:38:28;16.13;;;11.55;;
75506;SDS011;64086;43.220;27.878;2022-12-18T06:40:54;15.75;;;11.48;;
75506;SDS011;64086;43.220;27.878;2022-12-18T06:43:19;17.52;;;12.63;;
75506;SDS011;64086;43.220;27.878;2022-12-18T06:45:45;16.80;;;11.40;;
75506;SDS011;64086;43.220;27.878;2022-12-18T06:48:14;19.92;;;12.95;;
75506;SDS011;64086;43.220;27.878;2022-12-18T06:50:41;16.77;;;11.73;;
75506;SDS011;64086;43.220;27.878;2022-12-18T06:53:07;16.38;;;12.32;;
75506;SDS011;64086;43.220;27.878;2022-12-18T06:55:33;18.90;;;12.77;;
75506;SDS011;64086;43.220;27.878;2022-12-18T06:57:58;18.52;;;12.38;;
75506;SDS011;64086;43.220;27.878;2022-12-18T07:00:24;17.95;;;12.27;;
75506;SDS011;64086;43.220;27.878;2022-12-18T07:02:49;17.85;;;12.40;;
75506;SDS011;64086;43.220;27.878;2022-12-18T07:05:15;17.80;;;12.55;;
75506;SDS011;64086;43.220;27.878;2022-12-18T07:07:40;20.10;;;13.43;;
75506;SDS011;64086;43.220;27.878;2022-12-18T07:10:06;21.45;;;13.55;;
75506;SDS011;64086;43.220;27.878;2022-12-18T07:12:31;21.65;;;13.80;;
75506;SDS011;64086;43.220;27.878;2022-12-18T07:14:57;21.45;;;13.60;;
75506;SDS011;64086;43.220;27.878;2022-12-18T07:17:22;22.63;;;14.25;;
75506;SDS011;64086;43.220;27.878;2022-12-18T07:19:47;18.50;;;12.95;;
75506;SDS011;64086;43.220;27.878;2022-12-18T07:22:13;20.63;;;13.63;;
75506;SDS011;64086;43.220;27.878;2022-12-18T07:24:38;19.73;;;13.82;;
75506;SDS011;64086;43.220;27.878;2022-12-18T07:27:04;20.65;;;13.93;;
75506;SDS011;64086;43.220;27.878;2022-12-18T07:29:29;20.13;;;14.13;;
75506;SDS011;64086;43.220;27.878;2022-12-18T07:31:54;19.40;;;13.20;;
75506;SDS011;64086;43.220;27.878;2022-12-18T07:34:20;21.40;;;13.95;;
75506;SDS011;64086;43.220;27.878;2022-12-18T07:36:45;22.85;;;14.50;;
75506;SDS011;64086;43.220;27.878;2022-12-18T07:39:11;20.35;;;14.27;;
75506;SDS011;64086;43.220;27.878;2022-12-18T07:41:36;23.02;;;14.20;;
75506;SDS011;64086;43.220;27.878;2022-12-18T07:44:02;21.27;;;14.15;;
75506;SDS011;64086;43.220;27.878;2022-12-18T07:46:27;18.95;;;14.05;;
75506;SDS011;64086;43.220;27.878;2022-12-18T07:48:53;22.33;;;14.43;;
75506;SDS011;64086;43.220;27.878;2022-12-18T07:51:18;20.83;;;14.48;;
75506;SDS011;64086;43.220;27.878;2022-12-18T07:53:44;19.08;;;14.32;;
75506;SDS011;64086;43.220;27.878;2022-12-18T07:56:11;25.10;;;15.30;;
75506;SDS011;64086;43.220;27.878;2022-12-18T07:58:37;23.45;;;15.23;;
75506;SDS011;64086;43.220;27.878;2022-12-18T08:01:03;20.83;;;14.52;;
75506;SDS011;64086;43.220;27.878;2022-12-18T08:03:30;23.70;;;14.68;;
75506;SDS011;64086;43.220;27.878;2022-12-18T08:05:59;24.52;;;14.93;;
75506;SDS011;64086;43.220;27.878;2022-12-18T08:08:26;23.35;;;14.20;;
75506;SDS011;64086;43.220;27.878;2022-12-18T08:10:51;23.50;;;15.88;;
75506;SDS011;64086;43.220;27.878;2022-12-18T08:13:17;21.65;;;14.05;;
75506;SDS011;64086;43.220;27.878;2022-12-18T08:15:42;23.45;;;15.07;;
75506;SDS011;64086;43.220;27.878;2022-12-18T08:18:08;23.17;;;14.75;;
75506;SDS011;64086;43.220;27.878;2022-12-18T08:20:33;22.70;;;15.15;;
75506;SDS011;64086;43.220;27.878;2022-12-18T08:22:59;20.25;;;13.68;;
75506;SDS011;64086;43.220;27.878;2022-12-18T08:25:24;25.23;;;16.55;;
75506;SDS011;64086;43.220;27.878;2022-12-18T08:27:49;26.27;;;15.43;;
75506;SDS011;64086;43.220;27.878;2022-12-18T08:30:15;24.98;;;15.23;;
75506;SDS011;64086;43.220;27.878;2022-12-18T08:32:40;24.15;;;16.02;;
75506;SDS011;64086;43.220;27.878;2022-12-18T08:35:06;23.30;;;15.52;;
75506;SDS011;64086;43.220;27.878;2022-12-18T08:37:32;22.83;;;14.90;;
75506;SDS011;64086;43.220;27.878;2022-12-18T08:39:58;21.15;;;15.60;;
75506;SDS011;64086;43.220;27.878;2022-12-18T08:42:25;25.08;;;16.30;;
75506;SDS011;64086;43.220;27.878;2022-12-18T08:45:09;26.27;;;16.58;;
75506;SDS011;64086;43.220;27.878;2022-12-18T08:47:35;23.17;;;15.18;;
75506;SDS011;64086;43.220;27.878;2022-12-18T08:50:00;26.67;;;15.85;;
75506;SDS011;64086;43.220;27.878;2022-12-18T08:52:26;24.08;;;16.20;;
75506;SDS011;64086;43.220;27.878;2022-12-18T08:54:51;27.08;;;15.95;;
75506;SDS011;64086;43.220;27.878;2022-12-18T08:57:17;24.05;;;16.73;;
75506;SDS011;64086;43.220;27.878;2022-12-18T08:59:43;22.17;;;14.98;;
75506;SDS011;64086;43.220;27.878;2022-12-18T09:02:10;23.23;;;16.23;;
75506;SDS011;64086;43.220;27.878;2022-12-18T09:04:35;24.95;;;16.40;;
75506;SDS011;64086;43.220;27.878;2022-12-18T09:07:01;24.85;;;16.50;;
75506;SDS011;64086;43.220;27.878;2022-12-18T09:09:26;25.17;;;16.88;;
75506;SDS011;64086;43.220;27.878;2022-12-18T09:11:52;24.55;;;16.17;;
75506;SDS011;64086;43.220;27.878;2022-12-18T09:14:17;26.85;;;17.02;;
75506;SDS011;64086;43.220;27.878;2022-12-18T09:16:42;24.45;;;16.08;;
75506;SDS011;64086;43.220;27.878;2022-12-18T09:19:08;26.23;;;16.48;;
75506;SDS011;64086;43.220;27.878;2022-12-18T09:21:34;25.08;;;15.55;;
75506;SDS011;64086;43.220;27.878;2022-12-18T09:24:00;25.05;;;16.73;;
75506;SDS011;64086;43.220;27.878;2022-12-18T09:26:26;26.48;;;16.88;;
75506;SDS011;64086;43.220;27.878;2022-12-18T09:28:52;24.15;;;17.20;;
75506;SDS011;64086;43.220;27.878;2022-12-18T09:31:18;26.38;;;16.60;;
75506;SDS011;64086;43.220;27.878;2022-12-18T09:33:45;24.80;;;16.15;;
75506;SDS011;64086;43.220;27.878;2022-12-18T09:36:12;24.08;;;16.90;;
75506;SDS011;64086;43.220;27.878;2022-12-18T09:38:39;26.17;;;17.02;;
75506;SDS011;64086;43.220;27.878;2022-12-18T09:41:05;26.20;;;16.95;;
75506;SDS011;64086;43.220;27.878;2022-12-18T09:43:43;27.92;;;17.40;;
75506;SDS011;64086;43.220;27.878;2022-12-18T09:46:17;27.98;;;17.95;;
75506;SDS011;64086;43.220;27.878;2022-12-18T09:48:46;26.05;;;17.25;;
75506;SDS011;64086;43.220;27.878;2022-12-18T09:51:14;26.33;;;15.85;;
75506;SDS011;64086;43.220;27.878;2022-12-18T09:53:44;27.67;;;17.42;;
75506;SDS011;64086;43.220;27.878;2022-12-18T09:56:16;25.27;;;17.07;;
75506;SDS011;64086;43.220;27.878;2022-12-18T09:58:49;25.98;;;16.77;;
75506;SDS011;64086;43.220;27.878;2022-12-18T10:01:21;25.88;;;17.02;;
75506;SDS011;64086;43.220;27.878;2022-12-18T10:03:47;26.40;;;16.88;;
75506;SDS011;64086;43.220;27.878;2022-12-18T10:09:15;29.17;;;17.42;;
75506;SDS011;64086;43.220;27.878;2022-12-18T10:20:17;28.17;;;18.20;;
75506;SDS011;64086;43.220;27.878;2022-12-18T10:22:49;25.70;;;16.48;;
75506;SDS011;64086;43.220;27.878;2022-12-18T10:27:58;24.30;;;15.50;;
75506;SDS011;64086;43.220;27.878;2022-12-18T10:30:29;22.40;;;15.52;;
75506;SDS011;64086;43.220;27.878;2022-12-18T10:32:54;24.55;;;16.42;;
75506;SDS011;64086;43.220;27.878;2022-12-18T10:35:26;24.65;;;16.42;;
75506;SDS011;64086;43.220;27.878;2022-12-18T10:38:03;23.92;;;16.30;;
75506;SDS011;64086;43.220;27.878;2022-12-18T10:40:28;22.77;;;15.00;;
75506;SDS011;64086;43.220;27.878;2022-12-18T10:43:13;23.48;;;15.85;;
75506;SDS011;64086;43.220;27.878;2022-12-18T10:45:40;26.15;;;16.15;;
75506;SDS011;64086;43.220;27.878;2022-12-18T10:48:17;22.40;;;15.90;;
75506;SDS011;64086;43.220;27.878;2022-12-18T10:50:46;23.52;;;15.98;;
75506;SDS011;64086;43.220;27.878;2022-12-18T10:53:14;22.55;;;15.45;;
75506;SDS011;64086;43.220;27.878;2022-12-18T10:55:44;27.05;;;17.17;;
75506;SDS011;64086;43.220;27.878;2022-12-18T10:58:24;25.95;;;17.33;;
75506;SDS011;64086;43.220;27.878;2022-12-18T11:01:10;23.20;;;15.90;;
75506;SDS011;64086;43.220;27.878;2022-12-18T11:06:23;26.13;;;16.60;;
75506;SDS011;64086;43.220;27.878;2022-12-18T11:11:52;26.17;;;16.38;;
75506;SDS011;64086;43.220;27.878;2022-12-18T11:14:26;24.15;;;17.00;;
75506;SDS011;64086;43.220;27.878;2022-12-18T11:16:54;23.05;;;15.40;;
75506;SDS011;64086;43.220;27.878;2022-12-18T11:21:59;28.23;;;17.50;;
75506;SDS011;64086;43.220;27.878;2022-12-18T11:24:27;24.25;;;16.45;;
75506;SDS011;64086;43.220;27.878;2022-12-18T11:26:56;25.55;;;17.17;;
75506;SDS011;64086;43.220;27.878;2022-12-18T11:29:26;25.35;;;16.80;;
75506;SDS011;64086;43.220;27.878;2022-12-18T11:34:44;28.38;;;17.48;;
75506;SDS011;64086;43.220;27.878;2022-12-18T11:37:12;28.83;;;18.15;;
75506;SDS011;64086;43.220;27.878;2022-12-18T11:42:45;26.10;;;17.52;;
75506;SDS011;64086;43.220;27.878;2022-12-18T11:45:28;28.10;;;17.65;;
75506;SDS011;64086;43.220;27.878;2022-12-18T11:48:09;29.67;;;17.65;;
75506;SDS011;64086;43.220;27.878;2022-12-18T11:50:44;28.77;;;17.05;;
75506;SDS011;64086;43.220;27.878;2022-12-18T11:53:14;26.75;;;17.70;;
75506;SDS011;64086;43.220;27.878;2022-12-18T11:55:41;29.63;;;19.20;;
75506;SDS011;64086;43.220;27.878;2022-12-18T11:58:34;31.95;;;19.15;;
75506;SDS011;64086;43.220;27.878;2022-12-18T12:12:12;27.00;;;16.27;;
75506;SDS011;64086;43.220;27.878;2022-12-18T12:22:45;21.50;;;13.68;;
75506;SDS011;64086;43.220;27.878;2022-12-18T12:39:11;19.42;;;13.27;;
75506;SDS011;64086;43.220;27.878;2022-12-18T12:41:41;21.42;;;14.18;;
75506;SDS011;64086;43.220;27.878;2022-12-18T12:44:39;17.42;;;11.10;;
75506;SDS011;64086;43.220;27.878;2022-12-18T12:47:11;16.30;;;11.23;;
75506;SDS011;64086;43.220;27.878;2022-12-18T12:49:44;12.45;;;10.38;;
75506;SDS011;64086;43.220;27.878;2022-12-18T12:52:14;12.73;;;9.80;;
75506;SDS011;64086;43.220;27.878;2022-12-18T12:54:53;10.88;;;8.80;;
75506;SDS011;64086;43.220;27.878;2022-12-18T12:57:36;8.45;;;7.57;;
75506;SDS011;64086;43.220;27.878;2022-12-18T13:00:06;8.32;;;7.32;;
75506;SDS011;64086;43.220;27.878;2022-12-18T13:12:57;10.60;;;7.22;;
75506;SDS011;64086;43.220;27.878;2022-12-18T13:15:30;12.48;;;7.45;;
75506;SDS011;64086;43.220;27.878;2022-12-18T13:20:36;10.75;;;7.97;;
75506;SDS011;64086;43.220;27.878;2022-12-18T13:23:23;10.20;;;7.68;;
75506;SDS011;64086;43.220;27.878;2022-12-18T13:31:14;10.25;;;7.40;;
75506;SDS011;64086;43.220;27.878;2022-12-18T13:34:19;10.90;;;6.72;;
75506;SDS011;64086;43.220;27.878;2022-12-18T13:36:46;9.77;;;6.90;;
75506;SDS011;64086;43.220;27.878;2022-12-18T13:41:44;11.98;;;7.82;;
75506;SDS011;64086;43.220;27.878;2022-12-18T13:47:03;11.73;;;8.25;;
75506;SDS011;64086;43.220;27.878;2022-12-18T13:49:39;10.57;;;7.35;;
75506;SDS011;64086;43.220;27.878;2022-12-18T13:52:39;11.25;;;7.75;;
75506;SDS011;64086;43.220;27.878;2022-12-18T13:55:02;11.80;;;7.20;;
75506;SDS011;64086;43.220;27.878;2022-12-18T14:02:44;10.50;;;6.78;;
75506;SDS011;64086;43.220;27.878;2022-12-18T14:07:58;10.32;;;7.05;;
75506;SDS011;64086;43.220;27.878;2022-12-18T14:10:26;9.82;;;6.85;;
75506;SDS011;64086;43.220;27.878;2022-12-18T14:12:52;10.80;;;7.65;;
75506;SDS011;64086;43.220;27.878;2022-12-18T14:17:50;9.82;;;6.65;;
75506;SDS011;64086;43.220;27.878;2022-12-18T14:20:17;10.43;;;6.80;;
75506;SDS011;64086;43.220;27.878;2022-12-18T14:22:46;8.57;;;6.63;;
75506;SDS011;64086;43.220;27.878;2022-12-18T14:27:38;11.02;;;7.38;;
75506;SDS011;64086;43.220;27.878;2022-12-18T14:30:23;10.57;;;6.82;;
75506;SDS011;64086;43.220;27.878;2022-12-18T14:35:34;9.32;;;7.43;;
75506;SDS011;64086;43.220;27.878;2022-12-18T14:41:08;10.10;;;7.07;;
75506;SDS011;64086;43.220;27.878;2022-12-18T14:43:36;10.82;;;7.53;;
75506;SDS011;64086;43.220;27.878;2022-12-18T14:46:05;11.30;;;8.25;;
75506;SDS011;64086;43.220;27.878;2022-12-18T14:48:38;10.45;;;7.75;;
75506;SDS011;64086;43.220;27.878;2022-12-18T14:51:06;10.40;;;7.57;;
75506;SDS011;64086;43.220;27.878;2022-12-18T14:53:36;11.23;;;8.00;;
75506;SDS011;64086;43.220;27.878;2022-12-18T14:56:03;10.85;;;8.07;;
75506;SDS011;64086;43.220;27.878;2022-12-18T14:58:35;10.23;;;7.60;;
75506;SDS011;64086;43.220;27.878;2022-12-18T15:01:00;11.80;;;7.97;;
75506;SDS011;64086;43.220;27.878;2022-12-18T15:03:26;11.43;;;7.43;;
75506;SDS011;64086;43.220;27.878;2022-12-18T15:05:51;12.60;;;7.72;;
75506;SDS011;64086;43.220;27.878;2022-12-18T15:08:27;10.23;;;7.35;;
75506;SDS011;64086;43.220;27.878;2022-12-18T15:11:00;13.15;;;8.82;;
75506;SDS011;64086;43.220;27.878;2022-12-18T15:13:25;12.07;;;8.02;;
75506;SDS011;64086;43.220;27.878;2022-12-18T15:15:52;12.63;;;8.65;;
75506;SDS011;64086;43.220;27.878;2022-12-18T15:18:19;13.00;;;9.00;;
75506;SDS011;64086;43.220;27.878;2022-12-18T15:21:09;11.95;;;8.90;;
75506;SDS011;64086;43.220;27.878;2022-12-18T15:26:17;12.32;;;8.98;;
75506;SDS011;64086;43.220;27.878;2022-12-18T15:33:39;12.52;;;8.95;;
75506;SDS011;64086;43.220;27.878;2022-12-18T15:36:15;12.35;;;8.73;;
75506;SDS011;64086;43.220;27.878;2022-12-18T15:38:45;9.95;;;7.55;;
75506;SDS011;64086;43.220;27.878;2022-12-18T15:41:15;12.77;;;8.10;;
75506;SDS011;64086;43.220;27.878;2022-12-18T15:43:42;11.00;;;8.27;;
75506;SDS011;64086;43.220;27.878;2022-12-18T15:46:15;11.63;;;7.72;;
75506;SDS011;64086;43.220;27.878;2022-12-18T15:48:46;10.93;;;7.50;;
75506;SDS011;64086;43.220;27.878;2022-12-18T15:51:16;11.40;;;7.55;;
75506;SDS011;64086;43.220;27.878;2022-12-18T15:53:43;11.82;;;7.82;;
75506;SDS011;64086;43.220;27.878;2022-12-18T15:56:13;11.75;;;8.07;;
75506;SDS011;64086;43.220;27.878;2022-12-18T15:58:57;12.15;;;8.05;;
75506;SDS011;64086;43.220;27.878;2022-12-18T16:01:23;12.55;;;9.05;;
75506;SDS011;64086;43.220;27.878;2022-12-18T16:03:50;11.35;;;8.32;;
75506;SDS011;64086;43.220;27.878;2022-12-18T16:06:16;11.45;;;8.43;;
75506;SDS011;64086;43.220;27.878;2022-12-18T16:08:41;12.23;;;7.95;;
75506;SDS011;64086;43.220;27.878;2022-12-18T16:11:11;11.43;;;8.10;;
75506;SDS011;64086;43.220;27.878;2022-12-18T16:13:41;12.63;;;8.30;;
75506;SDS011;64086;43.220;27.878;2022-12-18T16:16:07;10.98;;;8.15;;
75506;SDS011;64086;43.220;27.878;2022-12-18T16:18:33;12.65;;;8.73;;
75506;SDS011;64086;43.220;27.878;2022-12-18T16:20:58;11.73;;;8.85;;
75506;SDS011;64086;43.220;27.878;2022-12-18T16:23:24;14.23;;;8.95;;
75506;SDS011;64086;43.220;27.878;2022-12-18T16:25:49;15.25;;;9.10;;
75506;SDS011;64086;43.220;27.878;2022-12-18T16:28:15;12.52;;;8.73;;
75506;SDS011;64086;43.220;27.878;2022-12-18T16:30:40;14.27;;;8.95;;
75506;SDS011;64086;43.220;27.878;2022-12-18T16:33:06;13.18;;;8.73;;
75506;SDS011;64086;43.220;27.878;2022-12-18T16:35:31;12.77;;;8.70;;
75506;SDS011;64086;43.220;27.878;2022-12-18T16:37:57;11.82;;;8.40;;
75506;SDS011;64086;43.220;27.878;2022-12-18T16:40:22;12.27;;;8.63;;
75506;SDS011;64086;43.220;27.878;2022-12-18T16:42:48;14.95;;;8.63;;